Reiles Acres, North Dakota
Current Conditions -  °F | °C
As of 2:53 PM on Wednesday 26 Nov 2014 (Local Time) from KFAR Reporting Station
Scattered Clouds Scattered Clouds  
Wind Chill: -14°   Ceiling: Unl
Heat Index:   Visibility: 10mi
Dew Point: -5°   Wind: 16mph
Humidity: 63%   Direction: 350°N
Pressure: 30.45"   Gusts: NA
Location:  46.9259°N, 96.8507°W
Report Text: KFAR 262053Z 35014KT 10SM SCT095 M15/M21 A3045 RMK AO2 SLP333 T11501206 53017
Loading
Personal Weather Stations






























Interactive Weather Map New forecast layout! Learn more

10-Day Weather Forecast

Advertisements
Track Severe Weather on mobile